Time;durP1;ratioP1;P1;durP2;ratioP2;P2;SDS_P1;SDS_P2;PMS_P1;PMS_P2;Temp;Humidity;BMP_temperature;BMP_pressure;BME280_temperature;BME280_humidity;BME280_pressure;Samples;Min_cycle;Max_cycle;Signal;HPM_P1;HPM_P2
2021/08/12 00:00:38;;;;;;;1.00;1.00;;;14.90;90.10;;;;;;2057026;28;20692;-64
2021/08/12 00:01:39;;;;;;;1.87;1.77;;;14.90;90.20;;;;;;2057049;28;20190;-64
2021/08/12 00:02:40;;;;;;;2.13;1.90;;;14.90;90.10;;;;;;2057544;28;20212;-65
2021/08/12 00:03:40;;;;;;;1.30;1.20;;;14.90;90.10;;;;;;2057601;28;20661;-65
2021/08/12 00:04:41;;;;;;;1.60;1.43;;;14.90;90.60;;;;;;2057547;28;20189;-65
2021/08/12 00:05:42;;;;;;;1.27;1.17;;;14.80;90.10;;;;;;2057012;28;20194;-65
2021/08/12 00:06:43;;;;;;;1.10;1.10;;;14.80;90.20;;;;;;2057029;28;20171;-65
2021/08/12 00:07:44;;;;;;;0.87;0.87;;;14.80;90.10;;;;;;2057481;28;20523;-66
2021/08/12 00:08:44;;;;;;;1.97;1.77;;;14.70;90.10;;;;;;2057561;28;20492;-65
2021/08/12 00:09:45;;;;;;;2.07;1.87;;;14.70;90.10;;;;;;2057674;28;20262;-65
2021/08/12 00:10:50;;;;;;;1.07;1.07;;;14.80;90.00;;;;;;2057511;28;20785;-65
2021/08/12 00:11:51;;;;;;;1.52;1.42;;;14.70;90.00;;;;;;2057732;28;20175;-65
2021/08/12 00:12:51;;;;;;;2.53;1.57;;;14.70;90.10;;;;;;2057643;28;20201;-65
2021/08/12 00:13:52;;;;;;;1.73;1.63;;;14.70;90.10;;;;;;2057075;28;20210;-65
2021/08/12 00:14:53;;;;;;;3.37;1.70;;;14.70;90.00;;;;;;2056981;28;20190;-65
2021/08/12 00:15:53;;;;;;;1.03;1.03;;;14.60;90.60;;;;;;2057682;28;20314;-65
2021/08/12 00:16:54;;;;;;;1.70;1.60;;;14.60;90.00;;;;;;2056593;28;20718;-65
2021/08/12 00:17:55;;;;;;;0.87;0.87;;;14.60;90.10;;;;;;2057645;28;20258;-64
2021/08/12 00:18:55;;;;;;;2.03;1.57;;;14.50;90.10;;;;;;2057652;28;20172;-65
2021/08/12 00:19:56;;;;;;;1.20;1.13;;;14.60;90.10;;;;;;2057514;28;20579;-65
2021/08/12 00:20:57;;;;;;;1.43;1.33;;;14.60;90.10;;;;;;2056898;28;20315;-65
2021/08/12 00:21:58;;;;;;;2.30;2.10;;;14.50;90.20;;;;;;2057092;28;20198;-65
2021/08/12 00:22:58;;;;;;;1.47;1.20;;;14.50;90.10;;;;;;2056782;28;20179;-65
2021/08/12 00:23:59;;;;;;;3.03;1.53;;;14.50;90.20;;;;;;2048879;28;20180;-65
2021/08/12 00:25:00;;;;;;;2.40;1.90;;;14.50;90.30;;;;;;2056738;28;20619;-65
2021/08/12 00:26:01;;;;;;;1.53;1.47;;;14.50;90.50;;;;;;2057502;28;20455;-65
2021/08/12 00:27:02;;;;;;;1.90;1.77;;;14.50;90.70;;;;;;2057199;28;20650;-65
2021/08/12 00:28:04;;;;;;;1.88;1.77;;;14.50;90.80;;;;;;2056879;28;20183;-65
2021/08/12 00:29:05;;;;;;;1.80;1.55;;;14.50;90.80;;;;;;2056765;28;20182;-64
2021/08/12 00:30:06;;;;;;;1.60;1.50;;;14.50;90.80;;;;;;2057495;28;20183;-65
2021/08/12 00:31:07;;;;;;;1.13;1.08;;;14.50;90.70;;;;;;2056630;28;20190;-65
2021/08/12 00:32:08;;;;;;;1.40;1.17;;;14.50;90.70;;;;;;2056774;28;20267;-65
2021/08/12 00:33:08;;;;;;;1.70;1.23;;;14.60;90.70;;;;;;2057487;28;20191;-65
2021/08/12 00:34:09;;;;;;;1.70;1.57;;;14.50;90.60;;;;;;2057390;28;20175;-65
2021/08/12 00:35:10;;;;;;;1.77;1.10;;;14.60;90.70;;;;;;2057337;28;20190;-65
2021/08/12 00:36:11;;;;;;;1.33;1.10;;;14.50;90.70;;;;;;2057345;28;20626;-65
2021/08/12 00:37:11;;;;;;;4.57;1.40;;;14.50;90.70;;;;;;2057307;28;20183;-65
2021/08/12 00:38:12;;;;;;;1.63;1.53;;;14.50;90.70;;;;;;2056664;28;20234;-65
2021/08/12 00:39:13;;;;;;;1.37;1.27;;;14.50;90.70;;;;;;2056854;28;20238;-65
2021/08/12 00:40:17;;;;;;;2.13;1.17;;;14.50;90.60;;;;;;2057336;28;20716;-65
2021/08/12 00:41:17;;;;;;;1.70;1.50;;;14.50;90.80;;;;;;2048779;29;20665;-66
2021/08/12 00:42:18;;;;;;;1.37;1.27;;;14.40;90.80;;;;;;2048518;28;20293;-65
2021/08/12 00:43:20;;;;;;;2.70;1.13;;;14.40;90.80;;;;;;2056698;28;20681;-65
2021/08/12 00:44:21;;;;;;;1.88;1.70;;;14.40;90.70;;;;;;2048722;28;20198;-65
2021/08/12 00:45:21;;;;;;;2.27;2.00;;;14.40;90.50;;;;;;2056591;28;20638;-65
2021/08/12 00:46:22;;;;;;;1.93;1.50;;;14.40;90.40;;;;;;2057211;28;20652;-65
2021/08/12 00:47:23;;;;;;;1.07;1.00;;;14.40;90.40;;;;;;2056992;28;20176;-65
2021/08/12 00:48:23;;;;;;;1.20;1.07;;;14.40;90.30;;;;;;2057200;28;20189;-65
2021/08/12 00:49:24;;;;;;;1.50;1.40;;;14.40;90.30;;;;;;2057237;28;20182;-65
2021/08/12 00:50:25;;;;;;;1.50;1.40;;;14.30;90.30;;;;;;2057258;28;20524;-65
2021/08/12 00:51:26;;;;;;;2.23;1.70;;;14.30;90.30;;;;;;2057227;28;20175;-65
2021/08/12 00:52:27;;;;;;;1.17;1.13;;;14.30;90.20;;;;;;2056463;28;20199;-66
2021/08/12 00:53:28;;;;;;;0.70;0.70;;;14.30;90.00;;;;;;2056519;28;20179;-66
2021/08/12 00:54:29;;;;;;;1.77;1.67;;;14.30;90.00;;;;;;2056993;28;20210;-66
2021/08/12 00:55:29;;;;;;;2.03;1.77;;;14.20;90.10;;;;;;2057051;28;20193;-65
2021/08/12 00:56:31;;;;;;;2.83;1.10;;;14.20;90.20;;;;;;2056430;28;20237;-65
2021/08/12 00:57:34;;;;;;;1.30;1.27;;;14.20;90.30;;;;;;2048496;28;20682;-65
2021/08/12 00:58:35;;;;;;;2.58;1.60;;;14.20;90.30;;;;;;2056420;28;20224;-65
2021/08/12 00:59:41;;;;;;;3.20;1.97;;;14.10;90.30;;;;;;2056371;28;20175;-65
2021/08/12 01:00:43;;;;;;;1.88;1.42;;;14.10;90.40;;;;;;2049099;28;20986;-65
2021/08/12 01:01:44;;;;;;;1.77;1.67;;;14.10;90.50;;;;;;2056534;28;20178;-65
2021/08/12 01:02:45;;;;;;;1.90;1.23;;;14.10;90.60;;;;;;2056188;28;20202;-65
2021/08/12 01:03:46;;;;;;;1.27;1.17;;;14.10;90.60;;;;;;2056394;28;20179;-65
2021/08/12 01:04:50;;;;;;;2.67;1.47;;;14.10;90.60;;;;;;2056325;28;20233;-65
2021/08/12 01:05:56;;;;;;;6.13;1.65;;;14.00;90.50;;;;;;2056393;28;20771;-65
2021/08/12 01:07:07;;;;;;;1.50;1.40;;;14.00;90.50;;;;;;2056831;28;20187;-65
2021/08/12 01:08:54;;;;;;;1.20;1.10;;;14.10;90.50;;;;;;2056441;28;20166;-65
2021/08/12 01:10:04;;;;;;;1.77;1.67;;;14.00;90.60;;;;;;2041994;28;20708;-65
2021/08/12 01:11:21;;;;;;;0.65;0.65;;;14.00;90.80;;;;;;2049543;28;20176;-65
2021/08/12 01:12:50;;;;;;;2.67;1.92;;;13.90;90.70;;;;;;2056345;28;20721;-65
2021/08/12 01:14:10;;;;;;;1.08;0.98;;;13.90;90.70;;;;;;2056333;28;20168;-65
2021/08/12 01:15:22;;;;;;;3.05;1.40;;;13.90;90.70;;;;;;2050757;28;20164;-65
2021/08/12 01:16:29;;;;;;;0.88;0.88;;;13.90;90.90;;;;;;2049834;28;20179;-65
2021/08/12 01:17:55;;;;;;;1.35;1.27;;;13.90;90.90;;;;;;2048976;28;20164;-66
2021/08/12 01:19:16;;;;;;;1.88;1.77;;;13.90;90.90;;;;;;2051577;28;20171;-65
2021/08/12 01:20:28;;;;;;;0.85;0.85;;;13.90;91.00;;;;;;2056488;28;20226;-65
2021/08/12 01:21:58;;;;;;;1.90;1.50;;;13.90;91.10;;;;;;2056810;28;20171;-65
2021/08/12 01:23:00;;;;;;;1.17;1.13;;;13.80;91.00;;;;;;2056269;28;20183;-65
2021/08/12 01:24:06;;;;;;;1.85;1.75;;;13.80;91.00;;;;;;2048375;28;20180;-65
2021/08/12 01:25:13;;;;;;;1.17;1.10;;;13.80;90.90;;;;;;2040859;29;20208;-65
2021/08/12 01:26:20;;;;;;;1.35;1.20;;;13.80;91.10;;;;;;2041938;28;20181;-65
2021/08/12 01:27:30;;;;;;;0.95;0.95;;;13.70;91.10;;;;;;2048840;28;20167;-65
2021/08/12 01:28:43;;;;;;;1.42;1.33;;;13.70;91.10;;;;;;2056286;28;20164;-65
2021/08/12 01:30:17;;;;;;;1.40;1.30;;;13.70;91.10;;;;;;2056051;28;20160;-65
2021/08/12 01:31:26;;;;;;;1.52;1.42;;;13.70;91.20;;;;;;2056476;28;20183;-65
2021/08/12 01:32:52;;;;;;;1.58;1.00;;;13.70;91.20;;;;;;2056586;28;20763;-65
2021/08/12 01:34:02;;;;;;;0.80;0.80;;;13.70;91.20;;;;;;2056118;28;20258;-65
2021/08/12 01:35:08;;;;;;;0.80;0.80;;;13.70;91.20;;;;;;2056270;28;20183;-65
2021/08/12 01:36:10;;;;;;;1.48;1.38;;;13.70;91.10;;;;;;2056152;28;20541;-67
2021/08/12 01:37:13;;;;;;;1.17;1.08;;;13.60;91.00;;;;;;2048149;28;20663;-65
2021/08/12 01:38:20;;;;;;;1.20;1.15;;;13.60;91.00;;;;;;2048424;28;20179;-65
2021/08/12 01:39:22;;;;;;;0.95;0.95;;;13.60;91.10;;;;;;2048958;28;20168;-65
2021/08/12 01:40:26;;;;;;;1.55;1.45;;;13.60;91.10;;;;;;2048294;28;20183;-65
2021/08/12 01:41:28;;;;;;;2.95;1.02;;;13.60;91.20;;;;;;2056238;28;20195;-65
2021/08/12 01:42:30;;;;;;;1.17;0.98;;;13.60;91.30;;;;;;2056663;28;20772;-65
2021/08/12 01:43:31;;;;;;;1.88;1.20;;;13.60;91.30;;;;;;2056111;28;20682;-65
2021/08/12 01:44:32;;;;;;;3.57;2.20;;;13.60;91.30;;;;;;2056045;28;20195;-65
2021/08/12 01:45:33;;;;;;;1.25;0.90;;;13.60;91.40;;;;;;2056022;28;20207;-65
2021/08/12 01:46:36;;;;;;;2.13;1.93;;;13.60;91.30;;;;;;2055953;28;20190;-65
2021/08/12 01:47:39;;;;;;;2.08;1.30;;;13.60;91.30;;;;;;2056524;28;20182;-65
2021/08/12 01:48:40;;;;;;;1.75;1.35;;;13.60;91.40;;;;;;2055989;28;20241;-65
2021/08/12 01:49:42;;;;;;;1.50;1.40;;;13.60;91.40;;;;;;2048060;28;20250;-65
2021/08/12 01:50:44;;;;;;;3.67;2.15;;;13.60;91.50;;;;;;2048269;28;20183;-65
2021/08/12 01:51:46;;;;;;;1.73;1.23;;;13.60;91.60;;;;;;2048039;28;20284;-65
2021/08/12 01:52:49;;;;;;;2.22;2.03;;;13.60;91.60;;;;;;2048100;28;20207;-65
2021/08/12 01:53:52;;;;;;;1.75;1.63;;;13.60;91.50;;;;;;2056130;28;20189;-65
2021/08/12 01:54:53;;;;;;;1.40;1.30;;;13.60;91.40;;;;;;2055998;28;20182;-65
2021/08/12 01:55:55;;;;;;;1.43;1.33;;;13.70;91.30;;;;;;2047259;28;20175;-65
2021/08/12 01:56:56;;;;;;;1.98;1.08;;;13.70;91.20;;;;;;2044187;28;20172;-65
2021/08/12 01:57:59;;;;;;;1.30;1.17;;;13.60;91.10;;;;;;2056229;28;20261;-65
2021/08/12 01:59:02;;;;;;;1.73;1.15;;;13.60;91.00;;;;;;2056188;28;20190;-65
2021/08/12 02:00:05;;;;;;;2.35;1.10;;;13.60;91.20;;;;;;2048446;28;20200;-65
2021/08/12 02:01:06;;;;;;;1.83;1.17;;;13.50;91.30;;;;;;2056137;28;20254;-65
2021/08/12 02:02:07;;;;;;;2.07;1.87;;;13.50;91.40;;;;;;2056157;28;20202;-65
2021/08/12 02:03:08;;;;;;;3.15;1.67;;;13.50;91.50;;;;;;2048171;28;20647;-65
2021/08/12 02:04:13;;;;;;;1.00;1.00;;;13.50;91.50;;;;;;2056114;28;20183;-65
2021/08/12 02:05:15;;;;;;;1.88;1.45;;;13.50;91.50;;;;;;2056044;28;20214;-65
2021/08/12 02:06:16;;;;;;;1.35;1.00;;;13.50;91.50;;;;;;2048604;28;20686;-65
2021/08/12 02:07:17;;;;;;;1.17;0.98;;;13.50;91.50;;;;;;2047936;28;20528;-65
2021/08/12 02:08:22;;;;;;;1.40;1.30;;;13.50;91.40;;;;;;2048141;29;20188;-65
2021/08/12 02:09:23;;;;;;;2.10;1.88;;;13.50;91.40;;;;;;2048838;28;20164;-66
2021/08/12 02:10:24;;;;;;;2.50;2.03;;;13.50;91.50;;;;;;2056108;28;20649;-65
2021/08/12 02:11:24;;;;;;;1.90;1.20;;;13.50;91.50;;;;;;2056066;28;20828;-65
2021/08/12 02:12:25;;;;;;;1.30;1.20;;;13.50;91.50;;;;;;2056096;28;20203;-65
2021/08/12 02:13:28;;;;;;;3.60;1.40;;;13.50;91.60;;;;;;2055965;28;20183;-65
2021/08/12 02:14:32;;;;;;;1.48;1.38;;;13.50;91.60;;;;;;2056050;28;20186;-65
2021/08/12 02:15:32;;;;;;;5.55;2.03;;;13.50;91.50;;;;;;2055986;28;20191;-65
2021/08/12 02:16:33;;;;;;;1.57;1.47;;;13.50;91.60;;;;;;2056043;28;20266;-65
2021/08/12 02:17:34;;;;;;;1.37;1.27;;;13.40;91.60;;;;;;2056480;28;20532;-65
2021/08/12 02:18:40;;;;;;;1.73;1.52;;;13.40;91.60;;;;;;2056056;28;20189;-66
2021/08/12 02:19:41;;;;;;;1.90;1.80;;;13.30;91.60;;;;;;2048564;28;20191;-65
2021/08/12 02:20:47;;;;;;;1.53;1.03;;;13.30;91.60;;;;;;2048082;28;20205;-66
2021/08/12 02:21:56;;;;;;;1.52;1.40;;;13.30;91.70;;;;;;2048749;28;20184;-64
2021/08/12 02:23:13;;;;;;;1.00;1.00;;;13.30;91.70;;;;;;2049176;28;20176;-64
2021/08/12 02:24:23;;;;;;;1.38;1.27;;;13.30;91.60;;;;;;2056011;28;20439;-66
2021/08/12 02:25:51;;;;;;;2.42;1.25;;;13.30;91.40;;;;;;2049382;28;20287;-64
2021/08/12 02:27:00;;;;;;;1.58;1.40;;;13.30;91.40;;;;;;2049229;28;20576;-65
2021/08/12 02:28:05;;;;;;;1.08;0.82;;;13.30;91.40;;;;;;2056671;28;20175;-64
2021/08/12 02:29:11;;;;;;;1.65;1.42;;;13.30;91.30;;;;;;2055958;28;20164;-65
2021/08/12 02:30:13;;;;;;;1.13;1.08;;;13.20;91.40;;;;;;2048536;28;20160;-64
2021/08/12 02:31:17;;;;;;;1.75;1.65;;;13.30;91.40;;;;;;2056108;28;20729;-65
2021/08/12 02:32:20;;;;;;;1.98;1.42;;;13.20;91.40;;;;;;2055824;28;20206;-65
2021/08/12 02:33:28;;;;;;;3.10;2.05;;;13.20;91.40;;;;;;2040254;29;20581;-64
2021/08/12 02:34:29;;;;;;;1.42;1.33;;;13.30;91.40;;;;;;2048916;28;20174;-65
2021/08/12 02:35:30;;;;;;;1.60;1.20;;;13.30;91.40;;;;;;2056016;28;20219;-65
2021/08/12 02:36:32;;;;;;;1.45;1.35;;;13.20;91.30;;;;;;2048106;28;20187;-65
2021/08/12 02:37:36;;;;;;;1.52;1.35;;;13.30;91.20;;;;;;2055944;28;20186;-64
2021/08/12 02:38:42;;;;;;;5.00;1.88;;;13.30;91.20;;;;;;2056200;28;20275;-65
2021/08/12 02:39:44;;;;;;;1.35;1.20;;;13.30;91.80;;;;;;2048756;28;20180;-64
2021/08/12 02:40:47;;;;;;;1.42;1.33;;;13.30;91.30;;;;;;2049789;28;20558;-64
2021/08/12 02:41:48;;;;;;;1.30;1.20;;;13.30;91.40;;;;;;2049652;28;20226;-65
2021/08/12 02:42:50;;;;;;;2.10;1.67;;;13.30;91.40;;;;;;2049464;29;20206;-65
2021/08/12 02:43:53;;;;;;;3.70;2.72;;;13.30;91.30;;;;;;2049814;28;20441;-65
2021/08/12 02:44:55;;;;;;;3.22;2.45;;;13.30;91.40;;;;;;2041640;29;20180;-65
2021/08/12 02:46:00;;;;;;;0.98;0.77;;;13.30;91.40;;;;;;2047066;29;20180;-65
2021/08/12 02:47:04;;;;;;;1.98;1.25;;;13.30;91.40;;;;;;2049513;29;20609;-65
2021/08/12 02:48:08;;;;;;;1.88;1.73;;;13.20;91.40;;;;;;2049478;29;20175;-65
2021/08/12 02:49:10;;;;;;;1.75;1.65;;;13.20;91.50;;;;;;2049607;29;20199;-65
2021/08/12 02:50:12;;;;;;;1.90;1.50;;;13.20;91.60;;;;;;2049441;29;20188;-64
2021/08/12 02:51:13;;;;;;;1.45;1.05;;;13.20;91.80;;;;;;2049562;29;20244;-65
2021/08/12 02:52:15;;;;;;;3.28;1.77;;;13.20;91.80;;;;;;2049423;29;20203;-65
2021/08/12 02:53:16;;;;;;;1.48;1.35;;;13.10;91.80;;;;;;2041675;29;20183;-64
2021/08/12 02:54:19;;;;;;;2.05;1.40;;;13.10;92.00;;;;;;2049432;29;20187;-65
2021/08/12 02:55:21;;;;;;;2.00;1.50;;;13.10;92.00;;;;;;2049542;29;20199;-64
2021/08/12 02:56:24;;;;;;;4.18;1.92;;;13.20;92.10;;;;;;2049412;29;20188;-65
2021/08/12 02:57:25;;;;;;;1.90;1.75;;;13.20;92.10;;;;;;2049317;29;20183;-65
2021/08/12 02:58:31;;;;;;;1.73;1.25;;;13.10;92.00;;;;;;2049387;29;20191;-65
2021/08/12 02:59:32;;;;;;;1.67;1.25;;;13.20;92.00;;;;;;2049548;29;20168;-65
2021/08/12 03:00:33;;;;;;;1.67;1.50;;;13.20;91.90;;;;;;2049989;28;20197;-65
2021/08/12 03:01:36;;;;;;;2.00;1.80;;;13.20;92.00;;;;;;2050038;28;20445;-65
2021/08/12 03:02:39;;;;;;;1.80;1.15;;;13.20;91.90;;;;;;2049382;29;20350;-65
2021/08/12 03:03:44;;;;;;;2.10;1.20;;;13.20;91.90;;;;;;2049537;29;20737;-65
2021/08/12 03:04:44;;;;;;;1.52;1.42;;;13.20;91.90;;;;;;2049871;28;20187;-65
2021/08/12 03:05:46;;;;;;;1.60;1.50;;;13.20;91.80;;;;;;2049424;29;20635;-65
2021/08/12 03:06:53;;;;;;;1.05;1.05;;;13.20;91.80;;;;;;2049373;28;20184;-64
2021/08/12 03:07:55;;;;;;;1.52;1.42;;;13.20;91.80;;;;;;2049369;29;20164;-65
2021/08/12 03:08:56;;;;;;;1.65;1.55;;;13.10;91.80;;;;;;2049367;29;20187;-65
2021/08/12 03:10:00;;;;;;;2.10;1.83;;;13.20;91.80;;;;;;2041493;29;20579;-65
2021/08/12 03:11:01;;;;;;;3.35;1.60;;;13.10;91.80;;;;;;2049346;29;20560;-64
2021/08/12 03:12:04;;;;;;;1.35;1.25;;;13.10;91.80;;;;;;2041482;29;20212;-65
2021/08/12 03:13:06;;;;;;;1.08;1.08;;;13.10;91.60;;;;;;2049458;28;20198;-65
2021/08/12 03:14:07;;;;;;;1.52;0.90;;;13.10;91.70;;;;;;2057158;28;20621;-64
2021/08/12 03:15:11;;;;;;;1.63;1.53;;;13.20;91.70;;;;;;2049793;28;20180;-65
2021/08/12 03:16:12;;;;;;;1.75;1.65;;;13.10;91.60;;;;;;2049976;28;20419;-65
2021/08/12 03:17:13;;;;;;;3.17;2.37;;;13.10;91.80;;;;;;2049746;28;20191;-65
2021/08/12 03:18:14;;;;;;;1.60;1.50;;;13.10;91.90;;;;;;2049383;29;20175;-65
2021/08/12 03:19:18;;;;;;;1.33;1.23;;;13.10;91.90;;;;;;2049170;29;20190;-65
2021/08/12 03:20:18;;;;;;;1.55;1.45;;;13.10;91.90;;;;;;2049420;28;20188;-65
2021/08/12 03:21:19;;;;;;;1.53;1.43;;;13.10;92.00;;;;;;2049425;29;20250;-65
2021/08/12 03:22:24;;;;;;;0.70;0.70;;;13.10;92.00;;;;;;2049847;28;20237;-65
2021/08/12 03:23:25;;;;;;;0.80;0.80;;;13.10;92.10;;;;;;2049278;29;20192;-65
2021/08/12 03:24:27;;;;;;;1.30;1.30;;;13.10;92.00;;;;;;2049407;29;20555;-65
2021/08/12 03:25:27;;;;;;;0.90;0.90;;;13.10;91.90;;;;;;2049992;28;20238;-65
2021/08/12 03:26:28;;;;;;;1.50;1.03;;;13.10;91.80;;;;;;2049993;28;20184;-65
2021/08/12 03:27:29;;;;;;;1.92;1.33;;;13.10;91.70;;;;;;2041312;29;20184;-65
2021/08/12 03:28:31;;;;;;;2.07;1.13;;;13.10;91.70;;;;;;2041414;29;20548;-65
2021/08/12 03:29:33;;;;;;;5.68;1.10;;;13.10;91.70;;;;;;2049377;29;20412;-66
2021/08/12 03:30:33;;;;;;;1.83;1.42;;;13.10;91.60;;;;;;2049356;29;20183;-65
2021/08/12 03:31:34;;;;;;;1.23;1.10;;;13.10;91.50;;;;;;2049935;28;20183;-65
2021/08/12 03:32:35;;;;;;;2.60;1.67;;;13.10;91.60;;;;;;2049758;28;20223;-65
2021/08/12 03:33:37;;;;;;;1.90;1.63;;;13.10;91.50;;;;;;2049975;28;20263;-65
2021/08/12 03:34:38;;;;;;;2.03;1.10;;;13.10;91.70;;;;;;2049955;28;20267;-65
2021/08/12 03:35:39;;;;;;;2.20;1.63;;;13.10;91.90;;;;;;2049925;28;20600;-65
2021/08/12 03:36:40;;;;;;;2.43;1.80;;;13.10;92.00;;;;;;2049712;28;20211;-65
2021/08/12 03:37:40;;;;;;;1.37;1.27;;;13.00;92.30;;;;;;2049695;28;20656;-65
2021/08/12 03:38:41;;;;;;;4.43;2.23;;;13.00;92.40;;;;;;2049749;29;20299;-65
2021/08/12 03:39:42;;;;;;;1.57;1.47;;;13.00;92.50;;;;;;2049812;29;20600;-65
2021/08/12 03:40:43;;;;;;;0.95;0.95;;;13.00;92.40;;;;;;2049636;28;20619;-65
2021/08/12 03:41:44;;;;;;;1.00;1.00;;;13.00;92.30;;;;;;2049580;28;20317;-65
2021/08/12 03:42:44;;;;;;;2.33;1.40;;;13.10;92.20;;;;;;2049857;28;20227;-65
2021/08/12 03:43:46;;;;;;;2.27;2.07;;;13.00;92.10;;;;;;2049763;28;20184;-65
2021/08/12 03:44:46;;;;;;;1.73;1.63;;;13.10;92.10;;;;;;2049723;28;20566;-65
2021/08/12 03:45:47;;;;;;;3.70;2.40;;;13.10;92.10;;;;;;2049776;28;20195;-65
2021/08/12 03:46:48;;;;;;;1.10;1.10;;;13.00;92.00;;;;;;2049618;28;20191;-65
2021/08/12 03:47:49;;;;;;;1.70;1.60;;;13.00;91.90;;;;;;2049597;29;20211;-65
2021/08/12 03:48:49;;;;;;;1.20;1.10;;;13.00;91.90;;;;;;2049677;28;20964;-65
2021/08/12 03:49:50;;;;;;;2.27;1.77;;;13.00;91.80;;;;;;2049459;29;20639;-65
2021/08/12 03:50:51;;;;;;;1.57;1.17;;;13.00;92.00;;;;;;2049609;28;20187;-65
2021/08/12 03:51:51;;;;;;;2.50;1.67;;;13.00;92.10;;;;;;2048442;28;20232;-65
2021/08/12 03:52:52;;;;;;;1.33;1.07;;;13.00;92.20;;;;;;2049632;29;20234;-65
2021/08/12 03:53:53;;;;;;;1.83;1.73;;;13.00;92.10;;;;;;2049613;29;20207;-65
2021/08/12 03:54:54;;;;;;;2.07;1.87;;;13.00;92.20;;;;;;2049512;28;20768;-65
2021/08/12 03:55:59;;;;;;;1.83;1.10;;;13.00;92.30;;;;;;2049552;28;20195;-65
2021/08/12 03:56:59;;;;;;;1.70;1.58;;;13.00;92.30;;;;;;2049413;28;20164;-65
2021/08/12 03:58:00;;;;;;;1.37;1.27;;;13.00;92.40;;;;;;2049582;28;20176;-65
2021/08/12 03:59:01;;;;;;;1.43;1.33;;;12.90;92.40;;;;;;2051992;28;20276;-65
2021/08/12 04:00:06;;;;;;;1.17;1.10;;;13.00;92.40;;;;;;2049432;28;20630;-65
2021/08/12 04:01:07;;;;;;;1.90;1.77;;;13.00;92.40;;;;;;2049541;28;20553;-65
2021/08/12 04:02:08;;;;;;;1.70;1.42;;;13.00;92.20;;;;;;2049512;28;20227;-65
2021/08/12 04:03:08;;;;;;;1.40;1.23;;;13.00;92.20;;;;;;2049488;28;20175;-65
2021/08/12 04:04:09;;;;;;;2.67;1.80;;;13.00;92.10;;;;;;2049619;28;20211;-65
2021/08/12 04:05:10;;;;;;;1.27;1.27;;;13.00;92.10;;;;;;2049466;28;20672;-65
2021/08/12 04:06:12;;;;;;;1.63;1.52;;;12.90;92.10;;;;;;2049529;28;20182;-65
2021/08/12 04:07:13;;;;;;;1.65;1.48;;;13.00;92.20;;;;;;2049365;28;20184;-65
2021/08/12 04:08:13;;;;;;;4.03;1.23;;;12.90;92.20;;;;;;2049442;28;20172;-65
2021/08/12 04:09:14;;;;;;;4.40;2.03;;;12.90;92.30;;;;;;2049383;28;20658;-65
2021/08/12 04:10:15;;;;;;;1.60;1.50;;;12.90;92.20;;;;;;2049475;28;20210;-65
2021/08/12 04:11:16;;;;;;;1.73;1.47;;;12.90;92.20;;;;;;2049468;28;20230;-65
2021/08/12 04:12:16;;;;;;;1.63;1.53;;;12.90;92.20;;;;;;2049426;28;20612;-65
2021/08/12 04:13:17;;;;;;;0.93;0.93;;;12.90;92.10;;;;;;2049488;28;20199;-65
2021/08/12 04:14:18;;;;;;;1.60;1.50;;;12.90;92.10;;;;;;2049604;28;20208;-66
2021/08/12 04:15:18;;;;;;;1.50;1.33;;;12.90;92.00;;;;;;2049575;28;20203;-65
2021/08/12 04:16:19;;;;;;;1.90;1.80;;;12.90;92.00;;;;;;2049499;28;20610;-65
2021/08/12 04:17:20;;;;;;;1.83;1.67;;;13.00;92.00;;;;;;2049455;28;20188;-65
2021/08/12 04:18:22;;;;;;;2.27;1.17;;;13.00;92.00;;;;;;2049321;28;20188;-65
2021/08/12 04:19:25;;;;;;;1.23;1.13;;;12.90;92.00;;;;;;2049326;28;20180;-65
2021/08/12 04:20:25;;;;;;;5.43;1.55;;;13.00;92.00;;;;;;2049295;28;20751;-65
2021/08/12 04:21:26;;;;;;;2.27;2.03;;;13.00;92.00;;;;;;2049211;28;20198;-65
2021/08/12 04:22:27;;;;;;;1.93;1.67;;;13.00;92.00;;;;;;2048503;28;20211;-65
2021/08/12 04:23:27;;;;;;;4.60;1.97;;;13.00;92.10;;;;;;2048651;29;20614;-65
2021/08/12 04:24:28;;;;;;;2.43;2.20;;;13.00;92.10;;;;;;2049197;28;20282;-65
2021/08/12 04:25:29;;;;;;;3.10;2.13;;;13.00;92.10;;;;;;2049219;28;20278;-65
2021/08/12 04:26:30;;;;;;;1.17;1.00;;;13.00;92.10;;;;;;2049224;28;20184;-65
2021/08/12 04:27:30;;;;;;;1.37;1.27;;;13.00;92.10;;;;;;2049140;28;20205;-65
2021/08/12 04:28:31;;;;;;;1.97;1.67;;;13.00;92.10;;;;;;2049291;28;20180;-65
2021/08/12 04:29:32;;;;;;;1.67;1.57;;;13.00;92.20;;;;;;2049241;28;20184;-65
2021/08/12 04:30:33;;;;;;;1.45;1.40;;;13.00;92.30;;;;;;2049206;28;20190;-65
2021/08/12 04:31:34;;;;;;;1.52;1.42;;;13.10;92.30;;;;;;2048645;29;20501;-65
2021/08/12 04:32:36;;;;;;;1.70;1.60;;;13.10;92.30;;;;;;2048519;28;20342;-65
2021/08/12 04:33:36;;;;;;;2.63;1.40;;;13.10;92.90;;;;;;2049297;28;20184;-65
2021/08/12 04:34:38;;;;;;;1.67;1.57;;;13.10;92.20;;;;;;2049322;28;20180;-65
2021/08/12 04:35:38;;;;;;;1.60;1.50;;;13.10;92.10;;;;;;2049321;28;20181;-65
2021/08/12 04:36:39;;;;;;;3.57;1.60;;;13.20;91.90;;;;;;2049385;28;20581;-65
2021/08/12 04:37:45;;;;;;;1.67;1.10;;;13.10;91.80;;;;;;2049281;28;20553;-65
2021/08/12 04:38:46;;;;;;;1.35;0.90;;;13.20;91.70;;;;;;2049370;28;20784;-65
2021/08/12 04:39:46;;;;;;;1.80;1.70;;;13.10;91.70;;;;;;2049282;28;20272;-65
2021/08/12 04:40:47;;;;;;;2.73;1.80;;;13.20;91.70;;;;;;2049447;28;20592;-65
2021/08/12 04:41:48;;;;;;;2.13;1.60;;;13.20;91.70;;;;;;2049051;28;20199;-65
2021/08/12 04:42:50;;;;;;;2.87;2.40;;;13.20;91.60;;;;;;2049284;28;20168;-65
2021/08/12 04:43:51;;;;;;;3.65;2.30;;;13.20;91.60;;;;;;2048828;29;20270;-65
2021/08/12 04:44:52;;;;;;;1.80;1.70;;;13.20;91.60;;;;;;2048574;29;20188;-66
2021/08/12 04:45:52;;;;;;;1.97;1.40;;;13.20;91.60;;;;;;2049338;28;20573;-65
2021/08/12 04:46:53;;;;;;;1.37;1.27;;;13.20;91.60;;;;;;2049127;28;20180;-66
2021/08/12 04:48:02;;;;;;;1.60;1.50;;;13.30;91.60;;;;;;2049316;28;20684;-66
2021/08/12 04:49:03;;;;;;;2.60;1.60;;;13.30;91.60;;;;;;2049208;28;20176;-65
2021/08/12 04:50:06;;;;;;;2.30;1.45;;;13.30;91.60;;;;;;2048760;28;20207;-64
2021/08/12 04:51:07;;;;;;;1.23;1.13;;;13.40;91.60;;;;;;2048606;29;20175;-64
2021/08/12 04:52:08;;;;;;;1.97;1.87;;;13.40;91.60;;;;;;2049136;28;20225;-64
2021/08/12 04:53:09;;;;;;;6.72;2.05;;;13.40;91.70;;;;;;2049199;28;20242;-65
2021/08/12 04:54:09;;;;;;;1.50;1.40;;;13.40;91.80;;;;;;2042748;28;20197;-67
2021/08/12 04:55:12;;;;;;;1.23;1.23;;;13.40;91.90;;;;;;2048212;29;20199;-65
2021/08/12 04:56:12;;;;;;;1.48;1.38;;;13.40;92.00;;;;;;2045755;29;20194;-65
2021/08/12 04:57:13;;;;;;;4.60;2.40;;;13.50;91.90;;;;;;2048620;28;20553;-65
2021/08/12 04:58:16;;;;;;;1.00;1.00;;;13.50;91.90;;;;;;2049308;28;20556;-65
2021/08/12 04:59:16;;;;;;;1.75;1.30;;;13.50;91.80;;;;;;2048876;28;20187;-65
2021/08/12 05:00:17;;;;;;;3.13;2.03;;;13.60;91.90;;;;;;2049224;28;20184;-64
2021/08/12 05:01:19;;;;;;;2.72;1.92;;;13.60;91.90;;;;;;2048978;29;20613;-65
2021/08/12 05:02:20;;;;;;;7.20;2.25;;;13.60;91.70;;;;;;2048682;28;20218;-65
2021/08/12 05:03:21;;;;;;;4.17;1.97;;;13.70;91.70;;;;;;2048134;28;20697;-65
2021/08/12 05:04:22;;;;;;;2.30;2.10;;;13.70;91.60;;;;;;2049248;28;20651;-65
2021/08/12 05:05:22;;;;;;;3.23;2.23;;;13.70;91.60;;;;;;2048408;29;20207;-65
2021/08/12 05:06:23;;;;;;;1.17;1.17;;;13.80;91.50;;;;;;2048518;29;20172;-65
2021/08/12 05:07:24;;;;;;;1.57;1.47;;;13.80;91.50;;;;;;2048142;29;20214;-65
2021/08/12 05:08:24;;;;;;;2.07;1.90;;;13.80;91.50;;;;;;2048539;29;20223;-65
2021/08/12 05:09:25;;;;;;;1.77;1.67;;;13.80;91.40;;;;;;2048980;28;20184;-65
2021/08/12 05:10:26;;;;;;;1.13;1.03;;;13.80;91.40;;;;;;2048935;28;20188;-65
2021/08/12 05:11:26;;;;;;;2.67;2.47;;;13.80;91.30;;;;;;2048369;29;20180;-65
2021/08/12 05:12:27;;;;;;;1.60;1.50;;;13.90;91.20;;;;;;2048291;28;20291;-65
2021/08/12 05:13:28;;;;;;;1.73;1.63;;;13.90;91.00;;;;;;2048208;29;20737;-65
2021/08/12 05:14:29;;;;;;;1.90;1.60;;;14.00;91.10;;;;;;2048248;29;20829;-65
2021/08/12 05:15:29;;;;;;;12.00;1.87;;;13.90;91.10;;;;;;2048891;29;20180;-65
2021/08/12 05:16:30;;;;;;;1.63;1.53;;;13.90;91.20;;;;;;2048228;29;20188;-65
2021/08/12 05:17:31;;;;;;;2.30;2.07;;;13.90;91.40;;;;;;2047850;29;20180;-65
2021/08/12 05:18:31;;;;;;;1.57;1.47;;;13.90;91.60;;;;;;2048771;29;20677;-65
2021/08/12 05:19:32;;;;;;;1.83;1.73;;;13.90;91.70;;;;;;2048650;28;20183;-65
2021/08/12 05:20:33;;;;;;;3.80;1.60;;;14.00;91.60;;;;;;2048809;28;20187;-65
2021/08/12 05:21:33;;;;;;;1.70;1.60;;;14.00;91.50;;;;;;2048849;28;20322;-65
2021/08/12 05:22:34;;;;;;;1.37;1.23;;;14.00;91.50;;;;;;2048692;28;20230;-65
2021/08/12 05:23:36;;;;;;;2.77;1.97;;;14.10;91.50;;;;;;2048742;28;20234;-65
2021/08/12 05:24:37;;;;;;;10.15;2.28;;;14.10;91.50;;;;;;2048791;28;20184;-65
2021/08/12 05:25:43;;;;;;;1.23;1.13;;;14.10;91.50;;;;;;2048726;28;20324;-65
2021/08/12 05:26:44;;;;;;;1.17;0.98;;;14.20;91.60;;;;;;2048748;28;20615;-65
2021/08/12 05:27:45;;;;;;;4.90;1.90;;;14.20;91.60;;;;;;2048378;28;20184;-65